createdAt,value
2019-05-22T00:00:26.231Z,27.13
2019-05-22T00:02:59.921Z,27.13
2019-05-22T00:05:34.624Z,27.13
2019-05-22T00:08:14.650Z,27.12
2019-05-22T00:10:50.088Z,27.09
2019-05-22T00:13:31.356Z,27.10
2019-05-22T00:16:06.431Z,27.09
2019-05-22T00:18:40.243Z,27.07
2019-05-22T00:21:13.208Z,27.07
2019-05-22T00:23:47.210Z,27.05
2019-05-22T00:26:22.518Z,27.05
2019-05-22T00:28:56.526Z,27.04
2019-05-22T00:31:30.305Z,27.03
2019-05-22T00:34:04.554Z,27.01
2019-05-22T00:36:37.534Z,27.00
2019-05-22T00:39:13.234Z,26.99
2019-05-22T00:41:50.807Z,26.98
2019-05-22T00:44:23.351Z,26.95
2019-05-22T00:46:55.901Z,26.95
2019-05-22T00:49:49.755Z,26.94
2019-05-22T00:52:49.771Z,26.94
2019-05-22T00:55:28.343Z,26.95
2019-05-22T00:58:20.790Z,26.91
2019-05-22T01:00:55.314Z,26.89
2019-05-22T01:03:29.230Z,26.87
2019-05-22T01:06:01.950Z,26.86
2019-05-22T01:08:38.079Z,26.86
2019-05-22T01:11:14.730Z,26.86
2019-05-22T01:13:48.565Z,26.87
2019-05-22T01:16:21.987Z,26.89
2019-05-22T01:18:56.008Z,26.88
2019-05-22T01:21:30.679Z,26.88
2019-05-22T01:24:05.005Z,26.89
2019-05-22T01:26:39.950Z,26.88
2019-05-22T01:29:12.240Z,26.88
2019-05-22T01:31:49.678Z,26.86
2019-05-22T01:34:29.567Z,26.85
2019-05-22T01:37:10.725Z,26.84
2019-05-22T01:40:00.883Z,26.84
2019-05-22T01:42:40.031Z,26.82
2019-05-22T01:45:16.826Z,26.81
2019-05-22T01:48:03.282Z,26.80
2019-05-22T01:50:48.421Z,26.78
2019-05-22T01:53:24.696Z,26.74
2019-05-22T01:56:03.249Z,26.72
2019-05-22T01:58:37.421Z,26.69
2019-05-22T02:01:16.516Z,26.65
2019-05-22T02:03:50.963Z,26.60
2019-05-22T02:06:25.254Z,26.55
2019-05-22T02:09:37.386Z,26.50
2019-05-22T02:12:52.317Z,26.42
2019-05-22T02:15:25.582Z,26.35
2019-05-22T02:17:59.815Z,26.30
2019-05-22T02:20:32.344Z,26.30
2019-05-22T02:23:06.323Z,26.29
2019-05-22T02:25:39.668Z,26.27
2019-05-22T02:28:12.864Z,26.23
2019-05-22T02:30:45.804Z,26.19
2019-05-22T02:33:22.666Z,26.17
2019-05-22T02:35:56.928Z,26.12
2019-05-22T02:38:29.691Z,26.10
2019-05-22T02:41:04.739Z,26.07
2019-05-22T02:43:37.653Z,26.04
2019-05-22T02:46:12.110Z,26.01
2019-05-22T02:48:44.706Z,25.98
2019-05-22T02:51:17.452Z,25.95
2019-05-22T02:53:51.798Z,25.94
2019-05-22T02:56:25.380Z,25.89
2019-05-22T02:58:58.195Z,25.90
2019-05-22T03:01:31.327Z,25.90
2019-05-22T03:04:05.653Z,25.92
2019-05-22T03:06:38.785Z,25.94
2019-05-22T03:09:30.586Z,25.95
2019-05-22T03:12:09.288Z,25.97
2019-05-22T03:14:43.719Z,25.97
2019-05-22T03:17:40.599Z,25.98
2019-05-22T03:20:18.985Z,26.02
2019-05-22T03:23:40.358Z,26.04
2019-05-22T03:26:14.407Z,26.09
2019-05-22T03:28:48.411Z,26.11
2019-05-22T03:31:20.905Z,26.17
2019-05-22T03:33:54.255Z,26.21
2019-05-22T03:36:27.808Z,26.25
2019-05-22T03:39:03.063Z,26.29
2019-05-22T03:41:36.039Z,26.33
2019-05-22T03:44:10.577Z,26.36
2019-05-22T03:46:48.437Z,26.41
2019-05-22T03:49:31.140Z,26.45
2019-05-22T03:51:57.755Z,26.45
2019-05-22T03:54:30.487Z,26.50
2019-05-22T03:57:03.455Z,26.53
2019-05-22T03:59:36.830Z,26.59
2019-05-22T04:02:09.282Z,26.66
2019-05-22T04:04:43.233Z,26.73
2019-05-22T04:07:24.433Z,26.80
2019-05-22T04:09:57.992Z,26.85
2019-05-22T04:12:31.405Z,26.93
2019-05-22T04:15:06.189Z,27.02
2019-05-22T04:17:40.057Z,27.10
2019-05-22T04:20:15.167Z,27.19
2019-05-22T04:22:47.883Z,27.27
2019-05-22T04:25:20.309Z,27.35
2019-05-22T04:27:52.938Z,27.45
2019-05-22T04:30:25.758Z,27.51
2019-05-22T04:32:58.785Z,27.57
2019-05-22T04:35:32.842Z,27.66
2019-05-22T04:38:06.380Z,27.74
2019-05-22T04:41:00.197Z,27.83
2019-05-22T04:43:36.682Z,27.94
2019-05-22T04:46:10.155Z,28.03
2019-05-22T04:48:46.154Z,28.11
2019-05-22T04:51:31.697Z,28.21
2019-05-22T04:54:04.981Z,28.34
2019-05-22T04:56:37.377Z,28.49
2019-05-22T04:59:10.039Z,28.77
2019-05-22T05:01:42.617Z,29.10
2019-05-22T05:04:15.317Z,29.37
2019-05-22T05:06:52.620Z,29.57
2019-05-22T05:09:25.774Z,29.74
2019-05-22T05:11:58.044Z,29.92
2019-05-22T05:14:30.936Z,30.24
2019-05-22T05:17:03.475Z,30.73
2019-05-22T05:19:35.846Z,31.32
2019-05-22T05:22:08.405Z,31.91
2019-05-22T05:24:40.911Z,32.52
2019-05-22T05:27:13.489Z,33.08
2019-05-22T05:29:45.995Z,33.61
2019-05-22T05:32:18.586Z,34.13
2019-05-22T05:35:01.519Z,34.60
2019-05-22T05:37:34.830Z,35.02
2019-05-22T05:40:38.417Z,35.44
2019-05-22T05:43:17.079Z,35.81
2019-05-22T05:45:52.501Z,36.20
2019-05-22T05:48:28.046Z,36.52
2019-05-22T05:51:40.844Z,36.79
2019-05-22T05:54:18.296Z,37.09
2019-05-22T05:56:51.831Z,37.38
2019-05-22T05:59:27.052Z,37.56
2019-05-22T06:02:00.695Z,37.72
2019-05-22T06:04:40.899Z,37.88
2019-05-22T06:07:25.609Z,37.97
2019-05-22T06:11:04.872Z,38.04
2019-05-22T06:13:37.495Z,38.09
2019-05-22T06:17:07.627Z,38.25
2019-05-22T06:19:45.697Z,38.34
2019-05-22T06:22:20.328Z,38.45
2019-05-22T06:25:05.366Z,38.56
2019-05-22T06:28:00.193Z,38.65
2019-05-22T06:30:46.659Z,38.72
2019-05-22T06:33:37.399Z,38.78
2019-05-22T06:36:21.870Z,38.85
2019-05-22T06:39:01.376Z,38.90
2019-05-22T06:41:36.221Z,38.92
2019-05-22T06:44:45.657Z,38.99
2019-05-22T06:47:26.543Z,39.10
2019-05-22T06:50:00.438Z,39.22
2019-05-22T06:52:33.152Z,39.35
2019-05-22T06:55:06.833Z,39.42
2019-05-22T06:57:39.497Z,39.46
2019-05-22T07:00:36.640Z,39.48
2019-05-22T07:03:11.039Z,39.48
2019-05-22T07:05:43.953Z,39.45
2019-05-22T07:08:17.085Z,39.43
2019-05-22T07:10:49.895Z,39.42
2019-05-22T07:13:22.880Z,39.42
2019-05-22T07:15:55.989Z,39.40
2019-05-22T07:18:31.890Z,39.40
2019-05-22T07:21:05.333Z,39.39
2019-05-22T07:23:39.366Z,39.38
2019-05-22T07:26:11.781Z,39.34
2019-05-22T07:28:44.744Z,39.33
2019-05-22T07:31:17.201Z,39.34
2019-05-22T07:33:52.229Z,39.31
2019-05-22T07:36:28.047Z,39.30
2019-05-22T07:39:00.451Z,39.27
2019-05-22T07:41:33.638Z,39.22
2019-05-22T07:44:06.095Z,39.22
2019-05-22T07:46:40.133Z,39.25
2019-05-22T07:49:12.884Z,39.25
2019-05-22T07:51:55.890Z,39.26
2019-05-22T07:54:19.973Z,39.28
2019-05-22T07:56:52.535Z,39.28
2019-05-22T07:59:24.865Z,39.27
2019-05-22T08:01:57.637Z,39.26
2019-05-22T08:04:30.518Z,39.22
2019-05-22T08:07:03.100Z,39.19
2019-05-22T08:09:35.413Z,39.19
2019-05-22T08:12:09.381Z,39.20
2019-05-22T08:14:43.456Z,39.23
2019-05-22T08:17:18.577Z,39.25
2019-05-22T08:19:50.960Z,39.21
2019-05-22T08:22:23.401Z,39.13
2019-05-22T08:24:57.195Z,39.06
2019-05-22T08:27:29.645Z,38.90
2019-05-22T08:30:03.010Z,38.64
2019-05-22T08:32:38.099Z,38.35
2019-05-22T08:35:12.757Z,38.11
2019-05-22T08:37:45.712Z,37.92
2019-05-22T08:40:20.562Z,37.75
2019-05-22T08:42:53.240Z,37.55
2019-05-22T08:45:25.911Z,37.38
2019-05-22T08:47:59.348Z,37.22
2019-05-22T08:50:32.997Z,37.07
2019-05-22T08:53:06.814Z,36.92
2019-05-22T08:55:39.808Z,36.77
2019-05-22T08:58:13.587Z,36.62
2019-05-22T09:00:46.665Z,36.53
2019-05-22T09:03:19.490Z,36.43
2019-05-22T09:05:52.585Z,36.38
2019-05-22T09:08:25.534Z,36.35
2019-05-22T09:10:57.793Z,36.29
2019-05-22T09:13:30.491Z,36.25
2019-05-22T09:16:03.501Z,36.23
2019-05-22T09:18:35.862Z,36.22
2019-05-22T09:21:08.103Z,36.15
2019-05-22T09:23:41.290Z,36.13
2019-05-22T09:26:13.871Z,36.09
2019-05-22T09:28:46.382Z,36.07
2019-05-22T09:31:20.109Z,36.07
2019-05-22T09:33:53.096Z,36.09
2019-05-22T09:36:25.485Z,36.12
2019-05-22T09:38:57.863Z,36.12
2019-05-22T09:41:30.830Z,36.06
2019-05-22T09:44:03.162Z,36.02
2019-05-22T09:46:35.929Z,36.02
2019-05-22T09:49:10.750Z,36.02
2019-05-22T09:51:43.066Z,36.00
2019-05-22T09:54:15.461Z,35.96
2019-05-22T09:56:47.730Z,35.86
2019-05-22T09:59:20.643Z,35.75
2019-05-22T10:01:53.039Z,35.67
2019-05-22T10:04:25.720Z,35.66
2019-05-22T10:06:58.017Z,35.66
2019-05-22T10:09:30.821Z,35.65
2019-05-22T10:12:03.190Z,35.64
2019-05-22T10:14:36.094Z,35.62
2019-05-22T10:17:10.495Z,35.55
2019-05-22T10:19:43.758Z,35.36
2019-05-22T10:22:16.835Z,35.15
2019-05-22T10:24:51.591Z,34.97
2019-05-22T10:27:25.018Z,34.90
2019-05-22T10:29:58.351Z,34.85
2019-05-22T10:32:33.147Z,34.78
2019-05-22T10:35:06.626Z,34.74
2019-05-22T10:37:39.752Z,34.72
2019-05-22T10:40:14.470Z,34.66
2019-05-22T10:42:47.386Z,34.60
2019-05-22T10:45:20.288Z,34.47
2019-05-22T10:47:53.850Z,34.41
2019-05-22T10:50:26.963Z,34.38
2019-05-22T10:52:59.563Z,34.36
2019-05-22T10:55:33.466Z,34.32
2019-05-22T10:58:07.254Z,34.28
2019-05-22T11:00:44.515Z,34.22
2019-05-22T11:03:18.107Z,34.16
2019-05-22T11:06:05.883Z,34.09
2019-05-22T11:08:28.964Z,34.06
2019-05-22T11:10:59.181Z,34.06
2019-05-22T11:13:34.185Z,34.10
2019-05-22T11:16:06.498Z,34.08
2019-05-22T11:18:39.163Z,33.99
2019-05-22T11:21:12.981Z,33.98
2019-05-22T11:23:51.851Z,34.01
2019-05-22T11:26:19.938Z,34.04
2019-05-22T11:28:52.817Z,34.09
2019-05-22T11:31:25.807Z,34.15
2019-05-22T11:33:58.117Z,34.21
2019-05-22T11:36:31.492Z,34.25
2019-05-22T11:39:05.323Z,34.26
2019-05-22T11:41:37.778Z,34.29
2019-05-22T11:44:10.755Z,34.32
2019-05-22T11:46:43.144Z,34.36
2019-05-22T11:49:15.699Z,34.39
2019-05-22T11:51:49.517Z,34.40
2019-05-22T11:54:21.827Z,34.41
2019-05-22T11:56:54.116Z,34.42
2019-05-22T11:59:26.791Z,34.47
2019-05-22T12:01:59.552Z,34.55
2019-05-22T12:04:46.700Z,34.62
2019-05-22T12:07:07.585Z,34.70
2019-05-22T12:09:40.245Z,34.78
2019-05-22T12:12:13.181Z,34.82
2019-05-22T12:14:45.496Z,34.86
2019-05-22T12:17:36.143Z,34.87
2019-05-22T12:19:55.986Z,34.91
2019-05-22T12:22:28.547Z,34.94
2019-05-22T12:25:01.205Z,34.95
2019-05-22T12:27:34.542Z,34.95
2019-05-22T12:30:07.945Z,34.94
2019-05-22T12:32:41.359Z,34.96
2019-05-22T12:35:16.777Z,34.97
2019-05-22T12:37:49.611Z,34.96
2019-05-22T12:40:23.055Z,34.97
2019-05-22T12:42:56.205Z,34.99
2019-05-22T12:45:31.527Z,35.04
2019-05-22T12:48:06.253Z,35.12
2019-05-22T12:50:40.246Z,35.14
2019-05-22T12:53:14.987Z,35.18
2019-05-22T12:55:47.901Z,35.21
2019-05-22T12:58:20.763Z,35.22
2019-05-22T13:00:54.898Z,35.22
2019-05-22T13:03:27.981Z,35.23
2019-05-22T13:06:01.319Z,35.25
2019-05-22T13:08:34.786Z,35.30
2019-05-22T13:11:07.993Z,35.37
2019-05-22T13:13:40.972Z,35.45
2019-05-22T13:16:14.899Z,35.51
2019-05-22T13:18:48.896Z,35.55
2019-05-22T13:21:25.845Z,35.57
2019-05-22T13:23:59.042Z,35.56
2019-05-22T13:26:35.313Z,35.57
2019-05-22T13:29:10.011Z,35.56
2019-05-22T13:31:45.590Z,35.55
2019-05-22T13:34:23.426Z,35.55
2019-05-22T13:36:58.911Z,35.51
2019-05-22T13:39:32.071Z,35.47
2019-05-22T13:42:04.807Z,35.45
2019-05-22T13:44:37.405Z,35.41
2019-05-22T13:47:11.837Z,35.35
2019-05-22T13:49:45.530Z,35.31
2019-05-22T13:52:18.406Z,35.27
2019-05-22T13:54:52.244Z,35.24
2019-05-22T13:57:25.258Z,35.20
2019-05-22T13:59:57.776Z,35.18
2019-05-22T14:02:30.388Z,35.15
2019-05-22T14:05:03.753Z,35.15
2019-05-22T14:07:36.268Z,35.15
2019-05-22T14:10:09.619Z,35.14
2019-05-22T14:12:43.500Z,35.13
2019-05-22T14:15:16.623Z,35.11
2019-05-22T14:17:49.023Z,35.09
2019-05-22T14:20:22.479Z,35.07
2019-05-22T14:22:54.995Z,35.06
2019-05-22T14:25:28.592Z,35.07
2019-05-22T14:28:00.781Z,35.07
2019-05-22T14:30:33.096Z,35.07
2019-05-22T14:33:05.841Z,35.07
2019-05-22T14:35:48.408Z,35.06
2019-05-22T14:38:15.635Z,35.02
2019-05-22T14:40:48.226Z,34.96
2019-05-22T14:43:20.590Z,34.92
2019-05-22T14:45:52.777Z,34.89
2019-05-22T14:48:25.388Z,34.86
2019-05-22T14:50:59.848Z,34.85
2019-05-22T14:53:32.307Z,34.84
2019-05-22T14:56:05.288Z,34.82
2019-05-22T14:58:38.859Z,34.81
2019-05-22T15:01:12.798Z,34.82
2019-05-22T15:03:45.264Z,34.83
2019-05-22T15:06:18.232Z,34.83
2019-05-22T15:08:55.865Z,34.82
2019-05-22T15:11:28.775Z,34.81
2019-05-22T15:14:01.308Z,34.80
2019-05-22T15:16:33.978Z,34.81
2019-05-22T15:19:07.516Z,34.82
2019-05-22T15:21:40.163Z,34.81
2019-05-22T15:24:13.490Z,34.82
2019-05-22T15:26:46.416Z,34.82
2019-05-22T15:29:19.440Z,34.84
2019-05-22T15:31:52.856Z,34.84
2019-05-22T15:34:25.887Z,34.81
2019-05-22T15:37:01.075Z,34.80
2019-05-22T15:39:34.677Z,34.81
2019-05-22T15:42:09.964Z,34.79
2019-05-22T15:44:44.802Z,34.77
2019-05-22T15:47:17.483Z,34.72
2019-05-22T15:49:50.531Z,34.68
2019-05-22T15:52:28.137Z,34.64
2019-05-22T15:55:02.383Z,34.60
2019-05-22T15:57:37.918Z,34.55
2019-05-22T16:00:12.445Z,34.50
2019-05-22T16:02:49.625Z,34.45
2019-05-22T16:05:23.348Z,34.40
2019-05-22T16:07:55.996Z,34.33
2019-05-22T16:10:29.269Z,34.29
2019-05-22T16:13:03.872Z,34.24
2019-05-22T16:15:36.953Z,34.19
2019-05-22T16:18:12.047Z,34.14
2019-05-22T16:20:44.826Z,34.09
2019-05-22T16:23:20.688Z,34.03
2019-05-22T16:25:53.263Z,33.98
2019-05-22T16:28:30.927Z,33.90
2019-05-22T16:31:01.623Z,33.83
2019-05-22T16:33:36.233Z,33.75
2019-05-22T16:36:10.077Z,33.70
2019-05-22T16:38:44.317Z,33.63
2019-05-22T16:41:18.121Z,33.58
2019-05-22T16:43:52.448Z,33.50
2019-05-22T16:46:26.077Z,33.43
2019-05-22T16:48:58.765Z,33.37
2019-05-22T16:51:31.974Z,33.30
2019-05-22T16:54:10.113Z,33.24
2019-05-22T16:56:43.262Z,33.17
2019-05-22T16:59:17.521Z,33.10
2019-05-22T17:01:59.484Z,33.03
2019-05-22T17:04:27.517Z,32.98
2019-05-22T17:07:01.822Z,32.89
2019-05-22T17:09:34.302Z,32.83
2019-05-22T17:12:08.244Z,32.77
2019-05-22T17:14:41.390Z,32.72
2019-05-22T17:17:17.801Z,32.67
2019-05-22T17:19:51.350Z,32.62
2019-05-22T17:22:23.962Z,32.58
2019-05-22T17:24:56.781Z,32.53
2019-05-22T17:27:30.271Z,32.48
2019-05-22T17:30:03.250Z,32.44
2019-05-22T17:32:36.583Z,32.39
2019-05-22T17:35:10.364Z,32.34
2019-05-22T17:37:43.214Z,32.29
2019-05-22T17:40:21.056Z,32.23
2019-05-22T17:42:56.888Z,32.16
2019-05-22T17:45:31.175Z,32.12
2019-05-22T17:48:06.287Z,32.07
2019-05-22T17:50:38.860Z,32.04
2019-05-22T17:53:12.912Z,32.02
2019-05-22T17:55:45.322Z,32.01
2019-05-22T17:58:19.143Z,31.99
2019-05-22T18:00:53.848Z,31.97
2019-05-22T18:03:26.614Z,31.96
2019-05-22T18:05:59.274Z,31.96
2019-05-22T18:08:31.543Z,31.94
2019-05-22T18:11:08.811Z,31.91
2019-05-22T18:13:59.117Z,31.89
2019-05-22T18:16:33.032Z,31.85
2019-05-22T18:19:07.448Z,31.84
2019-05-22T18:21:41.580Z,31.83
2019-05-22T18:24:13.953Z,31.81
2019-05-22T18:26:46.261Z,31.81
2019-05-22T18:29:18.674Z,31.79
2019-05-22T18:31:51.487Z,31.76
2019-05-22T18:34:23.720Z,31.77
2019-05-22T18:36:55.998Z,31.77
2019-05-22T18:39:29.982Z,31.76
2019-05-22T18:42:02.272Z,31.74
2019-05-22T18:44:34.486Z,31.72
2019-05-22T18:47:08.392Z,31.71
2019-05-22T18:49:40.731Z,31.69
2019-05-22T18:52:13.328Z,31.67
2019-05-22T18:54:45.673Z,31.64
2019-05-22T18:57:17.984Z,31.62
2019-05-22T18:59:50.242Z,31.59
2019-05-22T19:02:23.503Z,31.57
2019-05-22T19:04:56.799Z,31.54
2019-05-22T19:07:29.125Z,31.52
2019-05-22T19:10:01.497Z,31.51
2019-05-22T19:12:34.604Z,31.50
2019-05-22T19:15:07.045Z,31.50
2019-05-22T19:17:39.692Z,31.50
2019-05-22T19:20:12.005Z,31.50
2019-05-22T19:22:58.351Z,31.51
2019-05-22T19:25:18.649Z,31.51
2019-05-22T19:27:51.033Z,31.50
2019-05-22T19:30:23.418Z,31.50
2019-05-22T19:32:55.805Z,31.49
2019-05-22T19:35:28.348Z,31.49
2019-05-22T19:38:02.564Z,31.47
2019-05-22T19:40:36.381Z,31.46
2019-05-22T19:43:09.379Z,31.45
2019-05-22T19:45:42.100Z,31.44
2019-05-22T19:48:15.420Z,31.43
2019-05-22T19:50:49.489Z,31.44
2019-05-22T19:53:26.175Z,31.44
2019-05-22T19:55:58.808Z,31.43
2019-05-22T19:58:31.469Z,31.43
2019-05-22T20:01:03.736Z,31.43
2019-05-22T20:03:36.365Z,31.43
2019-05-22T20:06:09.545Z,31.43
2019-05-22T20:08:41.965Z,31.43
2019-05-22T20:11:15.159Z,31.45
2019-05-22T20:13:47.460Z,31.45
2019-05-22T20:16:19.879Z,31.45
2019-05-22T20:18:52.500Z,31.46
2019-05-22T20:21:26.322Z,31.46
2019-05-22T20:23:58.659Z,31.44
2019-05-22T20:26:31.373Z,31.43
2019-05-22T20:29:05.350Z,31.43
2019-05-22T20:31:38.015Z,31.42
2019-05-22T20:34:10.557Z,31.41
2019-05-22T20:36:43.567Z,31.39
2019-05-22T20:39:16.535Z,31.38
2019-05-22T20:41:48.878Z,31.37
2019-05-22T20:44:22.976Z,31.36
2019-05-22T20:46:55.911Z,31.36
2019-05-22T20:49:30.148Z,31.35
2019-05-22T20:52:03.203Z,31.37
2019-05-22T20:54:36.997Z,31.37
2019-05-22T20:57:10.199Z,31.37
2019-05-22T20:59:44.745Z,31.37
2019-05-22T21:02:18.995Z,31.36
2019-05-22T21:04:54.568Z,31.35
2019-05-22T21:07:35.461Z,31.36
2019-05-22T21:10:09.577Z,31.37
2019-05-22T21:12:44.222Z,31.36
2019-05-22T21:15:17.627Z,31.35
2019-05-22T21:17:50.997Z,31.34
2019-05-22T21:20:24.539Z,31.33
2019-05-22T21:22:57.103Z,31.31
2019-05-22T21:25:29.878Z,31.30
2019-05-22T21:28:02.916Z,31.28
2019-05-22T21:30:35.730Z,31.27
2019-05-22T21:33:09.763Z,31.23
2019-05-22T21:35:43.276Z,31.22
2019-05-22T21:38:16.790Z,31.20
2019-05-22T21:40:49.589Z,31.19
2019-05-22T21:43:22.647Z,31.19
2019-05-22T21:45:55.200Z,31.18
2019-05-22T21:48:29.218Z,31.18
2019-05-22T21:51:02.972Z,31.19
2019-05-22T21:53:35.916Z,31.17
2019-05-22T21:56:09.718Z,31.17
2019-05-22T21:58:42.872Z,31.18
2019-05-22T22:01:37.374Z,31.17
2019-05-22T22:04:35.553Z,31.18
2019-05-22T22:07:09.893Z,31.16
2019-05-22T22:09:43.265Z,31.14
2019-05-22T22:12:19.713Z,31.14
2019-05-22T22:14:52.757Z,31.15
2019-05-22T22:17:27.456Z,31.14
2019-05-22T22:19:59.814Z,31.15
2019-05-22T22:22:33.583Z,31.14
2019-05-22T22:25:07.375Z,31.14
2019-05-22T22:27:40.242Z,31.12
2019-05-22T22:30:24.221Z,31.09
2019-05-22T22:32:59.480Z,31.07
2019-05-22T22:35:31.954Z,31.05
2019-05-22T22:38:05.896Z,31.05
2019-05-22T22:40:41.021Z,31.05
2019-05-22T22:43:15.768Z,31.03
2019-05-22T22:45:57.340Z,31.01
2019-05-22T22:48:32.208Z,30.99
2019-05-22T22:51:09.963Z,30.97
2019-05-22T22:53:44.087Z,30.94
2019-05-22T22:56:19.278Z,30.91
2019-05-22T22:58:53.818Z,30.88
2019-05-22T23:01:33.701Z,30.86
2019-05-22T23:04:09.365Z,30.84
2019-05-22T23:06:43.391Z,30.82
2019-05-22T23:09:16.230Z,30.79
2019-05-22T23:11:50.169Z,30.78
2019-05-22T23:14:24.982Z,30.77
2019-05-22T23:16:59.076Z,30.76
2019-05-22T23:19:36.247Z,30.75
2019-05-22T23:22:05.899Z,30.75
2019-05-22T23:24:41.248Z,30.75
2019-05-22T23:27:17.460Z,30.76
2019-05-22T23:29:50.217Z,30.76
2019-05-22T23:32:24.448Z,30.77
2019-05-22T23:34:58.249Z,30.79
2019-05-22T23:37:30.923Z,30.79
2019-05-22T23:40:04.623Z,30.81
2019-05-22T23:42:41.955Z,30.83
2019-05-22T23:45:19.689Z,30.82
2019-05-22T23:48:15.237Z,30.80
2019-05-22T23:50:48.704Z,30.81
2019-05-22T23:53:25.477Z,30.79
2019-05-22T23:55:58.190Z,30.79
2019-05-22T23:58:31.180Z,30.79
